createdAt,value
2024-02-17T00:04:56.431Z,86.96
2024-02-17T00:09:58.662Z,86.78
2024-02-17T00:15:01.212Z,86.47
2024-02-17T00:20:04.973Z,87.03
2024-02-17T00:25:07.569Z,87.25
2024-02-17T00:30:10.423Z,87.40
2024-02-17T00:35:12.947Z,87.34
2024-02-17T00:40:15.408Z,87.15
2024-02-17T00:45:17.648Z,87.28
2024-02-17T00:50:20.030Z,87.29
2024-02-17T00:55:22.277Z,87.52
2024-02-17T01:00:24.573Z,87.38
2024-02-17T01:05:26.813Z,87.45
2024-02-17T01:10:30.473Z,87.51
2024-02-17T01:15:32.645Z,87.94
2024-02-17T01:20:35.066Z,88.23
2024-02-17T01:25:37.215Z,88.23
2024-02-17T01:30:39.559Z,87.64
2024-02-17T01:35:41.883Z,87.74
2024-02-17T01:40:44.242Z,87.38
2024-02-17T01:45:47.613Z,87.74
2024-02-17T01:50:49.894Z,87.97
2024-02-17T01:55:53.308Z,88.13
2024-02-17T02:00:55.834Z,87.97
2024-02-17T02:05:59.559Z,88.25
2024-02-17T02:11:02.132Z,88.87
2024-02-17T02:16:04.648Z,89.11
2024-02-17T02:21:07.024Z,89.12
2024-02-17T02:26:09.374Z,88.69
2024-02-17T02:31:11.473Z,88.80
2024-02-17T02:36:13.688Z,89.14
2024-02-17T02:41:16.050Z,89.34
2024-02-17T02:46:18.355Z,89.59
2024-02-17T02:51:20.668Z,89.57
2024-02-17T02:56:22.899Z,89.73
2024-02-17T03:01:25.208Z,89.93
2024-02-17T03:06:28.609Z,90.22
2024-02-17T03:11:31.073Z,90.21
2024-02-17T03:16:33.253Z,90.35
2024-02-17T03:21:37.645Z,90.43
2024-02-17T03:26:40.292Z,90.56
2024-02-17T03:31:42.549Z,90.55
2024-02-17T03:36:44.805Z,90.66
2024-02-17T03:41:47.568Z,90.88
2024-02-17T03:46:49.784Z,91.03
2024-02-17T03:51:52.051Z,91.19
2024-02-17T03:56:54.210Z,91.47
2024-02-17T04:01:57.078Z,91.44
2024-02-17T04:06:59.507Z,91.68
2024-02-17T04:12:01.881Z,91.74
2024-02-17T04:17:04.114Z,91.62
2024-02-17T04:22:06.375Z,91.52
2024-02-17T04:27:09.765Z,91.61
2024-02-17T04:32:11.993Z,91.28
2024-02-17T04:37:14.203Z,91.54
2024-02-17T04:42:16.735Z,91.37
2024-02-17T04:47:18.920Z,91.39
2024-02-17T04:52:21.096Z,91.46
2024-02-17T04:57:23.327Z,91.78
2024-02-17T05:02:25.527Z,91.83
2024-02-17T05:07:27.791Z,92.13
2024-02-17T05:12:30.209Z,92.29
2024-02-17T05:17:32.848Z,92.48
2024-02-17T05:22:35.020Z,92.45
2024-02-17T05:27:37.555Z,92.90
2024-02-17T05:32:40.326Z,92.65
2024-02-17T05:37:42.635Z,92.54
2024-02-17T05:42:45.184Z,92.17
2024-02-17T05:47:47.572Z,92.27
2024-02-17T05:52:50.246Z,92.51
2024-02-17T05:57:52.500Z,92.64
2024-02-17T06:02:55.167Z,92.39
2024-02-17T06:07:57.345Z,92.38
2024-02-17T06:12:59.705Z,92.13
2024-02-17T06:18:20.664Z,91.96
2024-02-17T06:23:22.873Z,91.73
2024-02-17T06:28:25.016Z,91.30
2024-02-17T06:33:32.738Z,91.11
2024-02-17T06:38:35.359Z,90.94
2024-02-17T06:43:38.070Z,90.78
2024-02-17T06:48:40.891Z,90.72
2024-02-17T06:53:43.176Z,90.23
2024-02-17T06:58:45.406Z,89.56
2024-02-17T07:03:48.685Z,88.96
2024-02-17T07:08:50.926Z,88.36
2024-02-17T07:13:53.128Z,88.08
2024-02-17T07:18:58.956Z,88.07
2024-02-17T07:24:01.353Z,87.21
2024-02-17T07:29:04.034Z,86.28
2024-02-17T07:34:07.193Z,85.63
2024-02-17T07:39:09.641Z,85.30
2024-02-17T07:44:11.853Z,84.30
2024-02-17T07:49:14.212Z,83.91
2024-02-17T07:54:16.509Z,83.12
2024-02-17T07:59:18.811Z,82.45
2024-02-17T08:04:21.019Z,81.86
2024-02-17T08:09:23.307Z,80.61
2024-02-17T08:14:28.113Z,79.69
2024-02-17T08:19:32.073Z,78.97
2024-02-17T08:24:34.299Z,78.20
2024-02-17T08:29:36.602Z,77.45
2024-02-17T08:34:39.294Z,76.12
2024-02-17T08:39:41.670Z,74.51
2024-02-17T08:44:44.006Z,73.29
2024-02-17T08:49:47.453Z,71.43
2024-02-17T08:54:49.737Z,70.13
2024-02-17T08:59:52.033Z,68.55
2024-02-17T09:04:54.447Z,67.04
2024-02-17T09:09:56.711Z,65.24
2024-02-17T09:14:59.173Z,62.66
2024-02-17T09:20:01.544Z,61.15
2024-02-17T09:25:03.984Z,58.76
2024-02-17T09:30:07.796Z,57.03
2024-02-17T09:35:10.277Z,44.19
2024-02-17T09:40:15.794Z,36.70
2024-02-17T09:45:17.978Z,33.34
2024-02-17T09:50:20.507Z,31.05
2024-02-17T09:55:23.863Z,26.66
2024-02-17T10:00:26.090Z,24.34
2024-02-17T10:05:29.508Z,26.94
2024-02-17T10:10:32.056Z,27.75
2024-02-17T10:15:34.541Z,27.99
2024-02-17T10:20:37.489Z,34.80
2024-02-17T10:25:39.976Z,33.32
2024-02-17T10:30:42.301Z,30.24
2024-02-17T11:34:11.175Z,26.02
2024-02-17T11:39:37.738Z,26.68
2024-02-17T11:44:52.432Z,26.63
2024-02-17T11:50:05.599Z,25.31
2024-02-17T12:12:00.857Z,29.79
2024-02-17T12:17:14.360Z,31.44
2024-02-17T12:22:19.725Z,29.87
2024-02-17T12:27:25.418Z,26.96
2024-02-17T12:37:55.960Z,31.49
2024-02-17T12:43:00.652Z,32.23
2024-02-17T12:48:06.618Z,33.58
2024-02-17T12:53:26.688Z,35.32
2024-02-17T12:58:34.039Z,37.05
2024-02-17T13:08:57.668Z,35.29
2024-02-17T13:14:05.417Z,36.36
2024-02-17T13:19:08.330Z,36.62
2024-02-17T13:24:13.135Z,37.21
2024-02-17T13:29:18.010Z,37.91
2024-02-17T13:34:20.953Z,38.96
2024-02-17T13:39:31.187Z,42.93
2024-02-17T13:44:39.228Z,45.07
2024-02-17T13:49:41.699Z,46.74
2024-02-17T13:54:44.778Z,48.11
2024-02-17T13:59:48.086Z,50.08
2024-02-17T14:04:50.486Z,51.61
2024-02-17T14:09:59.770Z,54.90
2024-02-17T14:21:09.889Z,59.15
2024-02-17T14:26:12.590Z,59.82
2024-02-17T14:49:21.513Z,67.57
2024-02-17T14:54:24.846Z,67.01
2024-02-17T14:59:27.641Z,67.06
2024-02-17T15:04:30.001Z,67.80
2024-02-17T15:09:32.644Z,67.98
2024-02-17T15:14:35.053Z,70.47
2024-02-17T15:19:38.073Z,70.55
2024-02-17T15:24:40.395Z,71.07
2024-02-17T15:29:42.677Z,70.79
2024-02-17T15:34:45.010Z,70.52
2024-02-17T15:39:47.356Z,70.22
2024-02-17T15:44:49.638Z,70.07
2024-02-17T15:49:51.905Z,70.20
2024-02-17T15:54:54.667Z,69.90
2024-02-17T15:59:58.234Z,69.22
2024-02-17T16:05:00.658Z,69.35
2024-02-17T16:10:03.576Z,70.08
2024-02-17T16:15:09.974Z,69.92
2024-02-17T16:20:12.472Z,70.12
2024-02-17T16:31:17.426Z,70.71
2024-02-17T16:36:23.282Z,70.93
2024-02-17T16:41:25.903Z,70.81
2024-02-17T16:46:28.530Z,71.53
2024-02-17T16:51:34.703Z,73.01
2024-02-17T16:56:37.683Z,74.03
2024-02-17T17:01:40.173Z,74.82
2024-02-17T17:06:42.848Z,76.26
2024-02-17T17:11:45.411Z,77.29
2024-02-17T17:16:47.630Z,78.32
2024-02-17T17:21:51.256Z,79.55
2024-02-17T17:26:55.146Z,79.04
2024-02-17T17:31:57.771Z,79.19
2024-02-17T17:37:00.349Z,80.69
2024-02-17T17:42:02.839Z,80.37
2024-02-17T17:47:05.778Z,80.84
2024-02-17T17:52:08.362Z,80.25
2024-02-17T17:57:10.614Z,80.41
2024-02-17T18:02:12.810Z,80.77
2024-02-17T18:07:15.057Z,80.27
2024-02-17T18:12:17.561Z,80.27
2024-02-17T18:17:19.981Z,80.64
2024-02-17T18:22:22.834Z,80.82
2024-02-17T18:27:25.149Z,80.20
2024-02-17T18:32:27.518Z,79.66
2024-02-17T18:37:30.848Z,80.02
2024-02-17T18:42:33.467Z,80.92
2024-02-17T18:47:35.720Z,80.36
2024-02-17T18:52:37.969Z,79.89
2024-02-17T18:57:42.107Z,79.79
2024-02-17T19:02:44.564Z,80.05
2024-02-17T19:07:47.622Z,80.56
2024-02-17T19:12:50.054Z,82.47
2024-02-17T19:17:52.357Z,83.33
2024-02-17T19:22:55.548Z,83.16
2024-02-17T19:27:57.935Z,82.39
2024-02-17T19:33:00.328Z,83.26
2024-02-17T19:38:02.848Z,82.73
2024-02-17T19:43:08.344Z,82.83
2024-02-17T19:48:10.954Z,82.68
2024-02-17T19:53:13.357Z,82.86
2024-02-17T19:58:15.664Z,82.96
2024-02-17T20:03:17.975Z,82.80
2024-02-17T20:08:20.269Z,82.66
2024-02-17T20:13:22.719Z,82.83
2024-02-17T20:18:25.263Z,82.26
2024-02-17T20:23:27.994Z,82.60
2024-02-17T20:28:30.496Z,82.65
2024-02-17T20:33:33.090Z,82.01
2024-02-17T20:38:35.396Z,82.87
2024-02-17T20:43:37.866Z,82.56
2024-02-17T20:48:40.215Z,82.73
2024-02-17T20:53:43.411Z,83.41
2024-02-17T20:58:46.046Z,83.95
2024-02-17T21:03:48.207Z,84.02
2024-02-17T21:08:50.361Z,84.30
2024-02-17T21:13:52.539Z,84.49
2024-02-17T21:18:55.688Z,84.99
2024-02-17T21:23:58.118Z,85.36
2024-02-17T21:29:01.139Z,84.94
2024-02-17T21:34:04.072Z,85.45
2024-02-17T21:39:07.960Z,86.10
2024-02-17T21:44:11.076Z,86.05
2024-02-17T21:49:13.476Z,86.06
2024-02-17T21:54:16.159Z,86.19
2024-02-17T21:59:18.360Z,86.64
2024-02-17T22:04:20.840Z,86.62
2024-02-17T22:09:23.094Z,86.78
2024-02-17T22:14:25.275Z,86.20
2024-02-17T22:19:27.534Z,84.26
2024-02-17T22:24:29.902Z,83.33
2024-02-17T22:29:33.519Z,82.50
2024-02-17T22:34:35.989Z,82.62
2024-02-17T22:39:38.754Z,82.26
2024-02-17T22:44:40.967Z,81.76
2024-02-17T22:49:44.743Z,81.42
2024-02-17T22:54:47.808Z,80.98
2024-02-17T22:59:50.007Z,80.57
2024-02-17T23:04:52.789Z,80.46
2024-02-17T23:10:00.441Z,80.91
2024-02-17T23:21:21.894Z,81.38
2024-02-17T23:26:24.234Z,80.95
2024-02-17T23:31:26.690Z,79.28
2024-02-17T23:36:32.578Z,79.34
2024-02-17T23:41:36.573Z,80.43
2024-02-17T23:46:38.941Z,81.93
2024-02-17T23:51:49.462Z,83.01
2024-02-17T23:56:51.862Z,84.09
